createdAt,value
2018-02-18T00:02:33.972Z,8.02
2018-02-18T00:05:01.765Z,6.67
2018-02-18T00:07:31.167Z,6.20
2018-02-18T00:09:58.272Z,6.03
2018-02-18T00:12:25.879Z,6.07
2018-02-18T00:17:33.191Z,7.37
2018-02-18T00:20:00.806Z,6.20
2018-02-18T00:22:28.425Z,6.37
2018-02-18T00:24:56.880Z,6.23
2018-02-18T00:27:24.563Z,5.70
2018-02-18T00:29:52.183Z,5.37
2018-02-18T00:32:19.872Z,5.80
2018-02-18T00:34:47.538Z,6.20
2018-02-18T00:37:15.183Z,6.30
2018-02-18T00:39:42.859Z,6.37
2018-02-18T00:42:10.499Z,6.60
2018-02-18T00:44:39.324Z,6.53
2018-02-18T00:47:07.037Z,6.60
2018-02-18T00:52:14.888Z,9.25
2018-02-18T00:54:42.535Z,7.83
2018-02-18T00:57:10.148Z,7.57
2018-02-18T00:59:37.848Z,7.43
2018-02-18T01:02:05.481Z,8.33
2018-02-18T01:04:33.132Z,7.20
2018-02-18T01:07:00.814Z,7.87
2018-02-18T01:09:28.483Z,8.03
2018-02-18T01:11:56.092Z,8.50
2018-02-18T01:14:24.494Z,8.43
2018-02-18T01:16:52.118Z,8.33
2018-02-18T01:19:19.749Z,8.07
2018-02-18T01:21:47.657Z,8.87
2018-02-18T01:24:15.244Z,8.70
2018-02-18T01:26:43.009Z,8.87
2018-02-18T01:29:11.115Z,9.63
2018-02-18T01:31:38.756Z,9.57
2018-02-18T01:34:06.373Z,9.47
2018-02-18T01:36:34.369Z,9.73
2018-02-18T01:39:01.948Z,10.27
2018-02-18T01:41:29.584Z,10.33
2018-02-18T01:43:58.321Z,9.43
2018-02-18T01:46:25.942Z,9.40
2018-02-18T01:48:58.106Z,8.83
2018-02-18T01:51:25.603Z,9.33
2018-02-18T01:53:53.229Z,9.47
2018-02-18T01:56:20.957Z,9.63
2018-02-18T01:58:48.609Z,8.87
2018-02-18T02:01:17.422Z,8.77
2018-02-18T02:03:47.284Z,9.20
2018-02-18T02:06:14.913Z,8.73
2018-02-18T02:08:42.533Z,8.93
2018-02-18T02:11:10.223Z,8.80
2018-02-18T02:16:20.628Z,12.15
2018-02-18T02:18:48.146Z,9.97
2018-02-18T02:21:15.766Z,10.33
2018-02-18T02:23:43.924Z,9.63
2018-02-18T02:26:11.558Z,10.43
2018-02-18T02:28:39.178Z,10.37
2018-02-18T02:31:06.902Z,11.10
2018-02-18T02:33:34.525Z,10.63
2018-02-18T02:36:02.164Z,10.50
2018-02-18T02:38:29.847Z,10.37
2018-02-18T02:40:57.523Z,10.93
2018-02-18T02:43:27.583Z,10.13
2018-02-18T02:45:55.132Z,11.10
2018-02-18T02:50:54.798Z,12.30
2018-02-18T02:53:23.443Z,11.83
2018-02-18T02:55:51.066Z,12.30
2018-02-18T02:58:18.752Z,10.83
2018-02-18T03:00:46.457Z,12.43
2018-02-18T03:03:14.587Z,11.07
2018-02-18T03:05:42.219Z,11.67
2018-02-18T03:08:09.907Z,11.93
2018-02-18T03:10:37.550Z,11.00
2018-02-18T03:13:05.174Z,11.23
2018-02-18T03:15:33.781Z,10.77
2018-02-18T03:18:01.381Z,10.93
2018-02-18T03:23:08.309Z,13.75
2018-02-18T03:25:35.931Z,11.77
2018-02-18T03:28:03.556Z,10.97
2018-02-18T03:30:31.250Z,9.93
2018-02-18T03:32:59.003Z,10.47
2018-02-18T03:35:26.629Z,10.57
2018-02-18T03:37:54.292Z,10.67
2018-02-18T03:40:21.921Z,9.90
2018-02-18T03:42:49.539Z,10.40
2018-02-18T03:45:17.255Z,10.17
2018-02-18T03:47:44.883Z,10.80
2018-02-18T03:50:12.499Z,9.10
2018-02-18T03:52:40.183Z,10.20
2018-02-18T03:55:07.843Z,9.60
2018-02-18T03:57:35.424Z,10.07
2018-02-18T04:00:03.102Z,9.90
2018-02-18T04:02:30.723Z,8.87
2018-02-18T04:04:59.035Z,9.90
2018-02-18T04:07:27.064Z,9.60
2018-02-18T04:09:54.896Z,10.20
2018-02-18T04:12:22.905Z,10.23
2018-02-18T04:14:50.597Z,10.50
2018-02-18T04:17:18.241Z,9.87
2018-02-18T04:19:46.583Z,11.07
2018-02-18T04:22:14.646Z,10.87
2018-02-18T04:24:44.050Z,9.77
2018-02-18T04:27:11.677Z,9.57
2018-02-18T04:29:39.450Z,10.90
2018-02-18T04:32:07.076Z,11.40
2018-02-18T04:34:34.716Z,10.83
2018-02-18T04:37:02.390Z,11.17
2018-02-18T04:39:32.629Z,10.90
2018-02-18T04:42:00.204Z,9.63
2018-02-18T04:47:07.396Z,14.60
2018-02-18T04:49:35.076Z,11.77
2018-02-18T04:52:02.695Z,11.30
2018-02-18T04:54:31.241Z,11.47
2018-02-18T04:56:59.878Z,11.30
2018-02-18T04:59:28.378Z,12.17
2018-02-18T05:01:56.377Z,12.40
2018-02-18T05:04:24.038Z,12.40
2018-02-18T05:06:51.739Z,13.37
2018-02-18T05:09:19.740Z,12.03
2018-02-18T05:11:48.760Z,12.07
2018-02-18T05:14:16.377Z,12.30
2018-02-18T05:16:43.995Z,12.03
2018-02-18T05:19:11.683Z,11.80
2018-02-18T05:21:39.341Z,11.53
2018-02-18T05:24:06.974Z,11.73
2018-02-18T05:26:34.650Z,12.20
2018-02-18T05:29:02.296Z,11.20
2018-02-18T05:31:29.923Z,9.90
2018-02-18T05:33:57.616Z,10.03
2018-02-18T05:36:25.238Z,8.57
2018-02-18T05:38:52.875Z,9.17
2018-02-18T05:41:20.540Z,9.60
2018-02-18T05:43:48.166Z,8.77
2018-02-18T05:46:15.794Z,8.93
2018-02-18T05:48:43.476Z,9.70
2018-02-18T05:51:11.703Z,9.53
2018-02-18T05:53:39.252Z,10.67
2018-02-18T05:56:06.976Z,12.47
2018-02-18T05:58:35.156Z,13.67
2018-02-18T06:01:02.785Z,14.30
2018-02-18T06:03:30.462Z,14.53
2018-02-18T06:05:58.095Z,11.67
2018-02-18T06:08:26.086Z,12.30
2018-02-18T06:10:53.794Z,12.63
2018-02-18T06:16:00.663Z,15.15
2018-02-18T06:18:30.897Z,12.90
2018-02-18T06:20:58.518Z,11.57
2018-02-18T06:23:26.201Z,11.37
2018-02-18T06:25:53.851Z,11.27
2018-02-18T06:28:21.470Z,12.47
2018-02-18T06:30:49.193Z,13.20
2018-02-18T06:33:16.824Z,12.67
2018-02-18T06:35:45.835Z,12.47
2018-02-18T06:38:13.553Z,11.83
2018-02-18T06:40:41.160Z,11.33
2018-02-18T06:43:08.771Z,12.60
2018-02-18T06:45:36.453Z,12.30
2018-02-18T06:48:04.107Z,11.80
2018-02-18T06:50:31.713Z,12.57
2018-02-18T06:52:59.397Z,11.63
2018-02-18T06:55:27.026Z,12.07
2018-02-18T07:00:27.121Z,11.73
2018-02-18T07:02:54.761Z,12.40
2018-02-18T07:05:22.379Z,12.40
2018-02-18T07:07:50.074Z,13.27
2018-02-18T07:10:17.715Z,13.00
2018-02-18T07:12:45.350Z,13.50
2018-02-18T07:15:13.048Z,13.27
2018-02-18T07:17:41.059Z,14.60
2018-02-18T07:22:51.493Z,16.45
2018-02-18T07:25:19.131Z,13.10
2018-02-18T07:27:46.987Z,13.73
2018-02-18T07:30:14.666Z,13.93
2018-02-18T07:32:42.300Z,13.33
2018-02-18T07:35:09.963Z,13.60
2018-02-18T07:37:39.299Z,14.63
2018-02-18T07:40:06.924Z,13.70
2018-02-18T07:42:34.606Z,14.27
2018-02-18T07:45:02.363Z,15.03
2018-02-18T07:47:30.004Z,17.60
2018-02-18T07:49:57.601Z,20.17
2018-02-18T07:52:25.280Z,17.07
2018-02-18T07:54:52.925Z,14.57
2018-02-18T07:57:20.609Z,15.07
2018-02-18T07:59:48.321Z,13.43
2018-02-18T08:02:15.940Z,15.23
2018-02-18T08:04:43.576Z,16.33
2018-02-18T08:07:11.275Z,15.37
2018-02-18T08:09:39.229Z,18.57
2018-02-18T08:12:06.533Z,16.77
2018-02-18T08:14:34.244Z,16.50
2018-02-18T08:17:01.880Z,15.33
2018-02-18T08:19:29.668Z,14.77
2018-02-18T08:21:57.359Z,16.53
2018-02-18T08:24:25.012Z,15.20
2018-02-18T08:26:52.696Z,15.10
2018-02-18T08:29:20.364Z,15.57
2018-02-18T08:31:48.067Z,14.03
2018-02-18T08:34:15.690Z,17.77
2018-02-18T08:36:43.393Z,14.37
2018-02-18T08:39:12.361Z,17.07
2018-02-18T08:41:39.986Z,14.07
2018-02-18T08:44:07.697Z,14.60
2018-02-18T08:49:14.457Z,22.25
2018-02-18T08:51:52.332Z,16.97
2018-02-18T08:54:20.038Z,17.37
2018-02-18T08:56:47.653Z,18.67
2018-02-18T08:59:15.294Z,17.33
2018-02-18T09:01:43.614Z,15.47
2018-02-18T09:04:11.358Z,14.80
2018-02-18T09:06:38.990Z,15.30
2018-02-18T09:09:06.692Z,16.70
2018-02-18T09:11:35.115Z,18.37
2018-02-18T09:14:02.740Z,17.07
2018-02-18T09:16:30.442Z,17.80
2018-02-18T09:18:58.075Z,16.00
2018-02-18T09:21:25.708Z,15.63
2018-02-18T09:23:53.508Z,15.27
2018-02-18T09:26:22.402Z,14.77
2018-02-18T09:28:50.032Z,14.43
2018-02-18T09:31:17.795Z,15.20
2018-02-18T09:33:45.379Z,14.33
2018-02-18T09:36:13.036Z,14.70
2018-02-18T09:38:40.777Z,14.67
2018-02-18T09:41:08.372Z,15.53
2018-02-18T09:43:35.998Z,14.87
2018-02-18T09:46:05.075Z,13.37
2018-02-18T09:48:32.705Z,13.67
2018-02-18T09:56:12.132Z,15.80
2018-02-18T09:58:39.895Z,15.40
2018-02-18T10:01:07.512Z,13.47
2018-02-18T10:03:35.147Z,13.17
2018-02-18T10:06:03.178Z,13.50
2018-02-18T10:08:31.035Z,13.83
2018-02-18T10:10:58.621Z,14.67
2018-02-18T10:13:26.314Z,13.53
2018-02-18T10:15:53.947Z,15.03
2018-02-18T10:18:21.570Z,13.47
2018-02-18T10:20:53.182Z,13.23
2018-02-18T10:23:20.745Z,16.43
2018-02-18T10:25:53.427Z,14.70
2018-02-18T10:30:54.579Z,13.27
2018-02-18T10:35:52.915Z,12.57
2018-02-18T10:41:06.736Z,14.50
2018-02-18T10:43:34.332Z,11.80
2018-02-18T10:46:02.019Z,12.73
2018-02-18T10:48:30.446Z,12.97
2018-02-18T10:50:58.569Z,12.67
2018-02-18T10:53:26.967Z,12.87
2018-02-18T10:55:54.412Z,13.40
2018-02-18T10:58:22.112Z,11.37
2018-02-18T11:00:50.820Z,11.63
2018-02-18T11:03:18.447Z,13.20
2018-02-18T11:05:46.068Z,11.90
2018-02-18T11:08:13.761Z,12.17
2018-02-18T11:10:41.386Z,13.87
2018-02-18T11:13:09.018Z,12.37
2018-02-18T11:15:36.709Z,11.07
2018-02-18T11:18:04.465Z,12.03
2018-02-18T11:20:32.093Z,11.73
2018-02-18T11:23:02.471Z,11.37
2018-02-18T11:25:27.406Z,11.33
2018-02-18T11:27:55.047Z,12.10
2018-02-18T11:30:23.356Z,12.20
2018-02-18T11:32:50.998Z,11.87
2018-02-18T11:35:18.667Z,11.47
2018-02-18T11:37:46.356Z,12.57
2018-02-18T11:40:14.027Z,13.03
2018-02-18T11:42:41.660Z,11.93
2018-02-18T11:47:41.102Z,10.93
2018-02-18T11:50:08.725Z,12.47
2018-02-18T11:52:36.404Z,11.67
2018-02-18T11:55:05.930Z,11.33
2018-02-18T11:57:33.456Z,11.77
2018-02-18T12:00:01.149Z,11.57
2018-02-18T12:02:28.779Z,12.10
2018-02-18T12:07:35.630Z,14.57
2018-02-18T12:10:03.324Z,11.53
2018-02-18T12:12:31.131Z,11.97
2018-02-18T12:14:58.787Z,12.20
2018-02-18T12:22:35.328Z,11.80
2018-02-18T12:25:03.032Z,11.10
2018-02-18T12:27:30.653Z,11.37
2018-02-18T12:29:58.296Z,11.43
2018-02-18T12:32:25.978Z,12.57
2018-02-18T12:34:53.615Z,10.70
2018-02-18T12:37:21.249Z,12.33
2018-02-18T12:39:48.933Z,11.97
2018-02-18T12:42:16.565Z,12.97
2018-02-18T12:44:44.295Z,12.13
2018-02-18T12:47:12.387Z,10.60
2018-02-18T12:52:11.980Z,11.57
2018-02-18T12:54:39.628Z,12.03
2018-02-18T12:57:07.240Z,11.20
2018-02-18T12:59:34.939Z,11.93
2018-02-18T13:02:04.368Z,11.97
2018-02-18T13:04:31.999Z,10.90
2018-02-18T13:06:59.668Z,10.10
2018-02-18T13:09:27.305Z,11.07
2018-02-18T13:11:55.866Z,11.10
2018-02-18T13:14:23.480Z,11.57
2018-02-18T13:16:51.096Z,10.67
2018-02-18T13:19:18.718Z,11.03
2018-02-18T13:21:46.408Z,11.43
2018-02-18T13:24:14.038Z,11.10
2018-02-18T13:26:41.663Z,12.20
2018-02-18T13:29:09.349Z,11.63
2018-02-18T13:34:18.129Z,13.50
2018-02-18T13:36:45.753Z,12.97
2018-02-18T13:39:13.370Z,11.37
2018-02-18T13:41:41.050Z,11.97
2018-02-18T13:44:08.694Z,12.93
2018-02-18T13:46:36.319Z,11.70
2018-02-18T13:49:04.025Z,11.90
2018-02-18T13:51:32.593Z,11.73
2018-02-18T13:54:00.689Z,11.67
2018-02-18T13:56:28.346Z,12.00
2018-02-18T13:58:55.964Z,12.80
2018-02-18T14:01:23.976Z,11.73
2018-02-18T14:03:51.637Z,11.47
2018-02-18T14:06:19.270Z,11.40
2018-02-18T14:08:46.909Z,10.53
2018-02-18T14:11:14.649Z,10.53
2018-02-18T14:13:42.266Z,10.67
2018-02-18T14:16:09.900Z,11.57
2018-02-18T14:18:37.590Z,11.43
2018-02-18T14:21:05.231Z,10.83
2018-02-18T14:23:32.843Z,11.20
2018-02-18T14:26:00.533Z,11.00
2018-02-18T14:28:28.175Z,11.57
2018-02-18T14:30:56.058Z,10.53
2018-02-18T14:33:23.765Z,9.20
2018-02-18T14:35:51.389Z,10.10
2018-02-18T14:38:19.001Z,9.80
2018-02-18T14:40:46.692Z,9.60
2018-02-18T14:43:26.120Z,9.97
2018-02-18T14:46:05.601Z,9.47
2018-02-18T14:48:44.899Z,9.00
2018-02-18T14:51:24.413Z,9.40
2018-02-18T14:53:57.818Z,9.07
2018-02-18T14:59:18.411Z,10.90
2018-02-18T15:01:46.951Z,9.40
2018-02-18T15:04:15.592Z,8.97
2018-02-18T15:06:43.231Z,8.90
2018-02-18T15:09:10.910Z,9.20
2018-02-18T15:11:38.544Z,10.50
2018-02-18T15:14:06.531Z,8.93
2018-02-18T15:16:34.215Z,8.70
2018-02-18T15:19:02.354Z,8.93
2018-02-18T15:21:29.996Z,7.50
2018-02-18T15:23:57.687Z,8.37
2018-02-18T15:26:25.307Z,7.20
2018-02-18T15:28:52.935Z,7.53
2018-02-18T15:31:20.999Z,7.67
2018-02-18T15:33:48.645Z,8.30
2018-02-18T15:36:16.273Z,8.73
2018-02-18T15:38:44.335Z,9.40
2018-02-18T15:41:11.988Z,9.37
2018-02-18T15:43:39.635Z,8.83
2018-02-18T15:46:08.386Z,9.00
2018-02-18T15:48:36.038Z,10.30
2018-02-18T15:51:03.658Z,11.97
2018-02-18T15:53:31.376Z,10.73
2018-02-18T15:55:59.049Z,10.10
2018-02-18T15:58:26.746Z,10.53
2018-02-18T16:00:54.383Z,10.37
2018-02-18T16:03:22.174Z,12.23
2018-02-18T16:05:49.771Z,11.17
2018-02-18T16:08:17.418Z,12.10
2018-02-18T16:10:45.289Z,13.10
2018-02-18T16:13:13.247Z,12.63
2018-02-18T16:15:40.902Z,12.27
2018-02-18T16:18:10.235Z,12.70
2018-02-18T16:20:37.896Z,13.17
2018-02-18T16:25:45.805Z,16.95
2018-02-18T16:28:13.424Z,14.97
2018-02-18T16:30:41.083Z,14.33
2018-02-18T16:33:08.782Z,14.57
2018-02-18T16:35:36.421Z,14.10
2018-02-18T16:38:04.077Z,14.33
2018-02-18T16:40:32.030Z,15.27
2018-02-18T16:43:00.156Z,16.00
2018-02-18T16:45:27.799Z,14.73
2018-02-18T16:47:55.469Z,15.13
2018-02-18T16:50:23.105Z,15.97
2018-02-18T16:52:51.613Z,14.73
2018-02-18T16:55:19.611Z,15.87
2018-02-18T17:00:19.181Z,13.73
2018-02-18T17:02:47.836Z,16.17
2018-02-18T17:05:15.427Z,17.17
2018-02-18T17:07:43.114Z,16.03
2018-02-18T17:10:10.783Z,17.10
2018-02-18T17:12:38.428Z,14.63
2018-02-18T17:15:08.345Z,17.17
2018-02-18T17:20:15.447Z,19.75
2018-02-18T17:22:43.084Z,18.13
2018-02-18T17:25:10.730Z,16.77
2018-02-18T17:27:38.454Z,17.40
2018-02-18T17:30:06.091Z,18.00
2018-02-18T17:32:33.730Z,16.27
2018-02-18T17:35:02.465Z,17.07
2018-02-18T17:37:30.128Z,17.43
2018-02-18T17:39:57.751Z,15.53
2018-02-18T17:42:25.478Z,17.27
2018-02-18T17:47:26.334Z,15.87
2018-02-18T17:55:01.957Z,16.13
2018-02-18T17:57:31.158Z,16.67
2018-02-18T17:59:59.960Z,16.67
2018-02-18T18:02:29.773Z,16.30
2018-02-18T18:07:30.086Z,16.00
2018-02-18T18:09:59.453Z,16.83
2018-02-18T18:12:27.130Z,17.27
2018-02-18T18:14:56.856Z,15.83
2018-02-18T18:20:06.972Z,21.70
2018-02-18T18:22:33.953Z,18.87
2018-02-18T18:25:01.644Z,18.53
2018-02-18T18:27:29.279Z,18.10
2018-02-18T18:29:56.986Z,17.63
2018-02-18T18:32:24.624Z,18.00
2018-02-18T18:34:52.299Z,16.63
2018-02-18T18:37:19.928Z,17.63
2018-02-18T18:39:47.568Z,19.10
2018-02-18T18:42:15.236Z,18.57
2018-02-18T18:44:42.962Z,16.10
2018-02-18T18:47:10.583Z,17.70
2018-02-18T18:49:38.281Z,19.23
2018-02-18T18:52:05.922Z,19.50
2018-02-18T18:54:33.576Z,18.63
2018-02-18T18:57:01.301Z,18.77
2018-02-18T19:02:16.780Z,18.17
2018-02-18T19:07:35.155Z,19.20
2018-02-18T19:10:06.867Z,17.87
2018-02-18T19:15:47.857Z,18.23
2018-02-18T19:18:15.586Z,19.67
2018-02-18T19:20:43.235Z,19.30
2018-02-18T19:23:10.874Z,20.30
2018-02-18T19:25:38.583Z,20.10
2018-02-18T19:28:06.244Z,20.10
2018-02-18T19:30:33.871Z,18.67
2018-02-18T19:33:02.397Z,17.90
2018-02-18T19:35:30.016Z,18.33
2018-02-18T19:37:57.659Z,18.43
2018-02-18T19:40:25.366Z,18.43
2018-02-18T19:42:52.987Z,18.13
2018-02-18T19:45:20.618Z,17.47
2018-02-18T19:47:48.607Z,18.73
2018-02-18T19:50:16.232Z,18.10
2018-02-18T19:52:43.877Z,21.27
2018-02-18T19:55:11.576Z,17.53
2018-02-18T19:57:39.496Z,18.80
2018-02-18T20:02:46.113Z,24.12
2018-02-18T20:05:13.735Z,21.30
2018-02-18T20:07:41.981Z,19.67
2018-02-18T20:10:09.653Z,19.07
2018-02-18T20:12:37.366Z,19.27
2018-02-18T20:15:04.916Z,18.97
2018-02-18T20:17:32.622Z,19.60
2018-02-18T20:20:00.256Z,19.27
2018-02-18T20:22:27.905Z,18.47
2018-02-18T20:24:55.613Z,19.27
2018-02-18T20:27:23.255Z,19.03
2018-02-18T20:29:50.985Z,18.83
2018-02-18T20:32:18.661Z,19.20
2018-02-18T20:34:46.315Z,19.87
2018-02-18T20:37:13.956Z,18.80
2018-02-18T20:39:41.656Z,18.83
2018-02-18T20:42:09.409Z,18.70
2018-02-18T20:44:37.034Z,19.27
2018-02-18T20:47:04.722Z,20.10
2018-02-18T20:49:32.359Z,20.17
2018-02-18T20:52:00.333Z,20.43
2018-02-18T20:54:28.042Z,20.63
2018-02-18T20:56:55.743Z,18.10
2018-02-18T20:59:23.848Z,19.37
2018-02-18T21:01:51.760Z,18.37
2018-02-18T21:04:19.322Z,19.83
2018-02-18T21:06:46.933Z,19.40
2018-02-18T21:09:16.690Z,18.20
2018-02-18T21:11:44.278Z,18.00
2018-02-18T21:14:11.898Z,19.23
2018-02-18T21:16:39.581Z,18.20
2018-02-18T21:19:07.236Z,18.37
2018-02-18T21:21:34.851Z,19.17
2018-02-18T21:26:41.697Z,23.30
2018-02-18T21:29:09.390Z,18.63
2018-02-18T21:31:37.026Z,18.90
2018-02-18T21:34:04.665Z,18.80
2018-02-18T21:36:32.372Z,19.00
2018-02-18T21:39:00.006Z,20.27
2018-02-18T21:41:27.634Z,20.50
2018-02-18T21:43:55.343Z,19.63
2018-02-18T21:46:22.959Z,19.00
2018-02-18T21:48:50.598Z,20.20
2018-02-18T21:51:18.274Z,21.70
2018-02-18T21:53:45.900Z,19.67
2018-02-18T21:56:13.587Z,19.13
2018-02-18T21:58:41.743Z,19.80
2018-02-18T22:01:09.361Z,19.37
2018-02-18T22:03:36.986Z,20.73
2018-02-18T22:06:04.662Z,19.63
2018-02-18T22:08:32.290Z,19.30
2018-02-18T22:10:59.916Z,21.63
2018-02-18T22:13:27.675Z,20.10
2018-02-18T22:15:55.287Z,20.17
2018-02-18T22:18:22.920Z,19.37
2018-02-18T22:20:50.598Z,20.70
2018-02-18T22:23:18.255Z,21.13
2018-02-18T22:25:46.185Z,20.67
2018-02-18T22:28:13.822Z,20.83
2018-02-18T22:30:42.046Z,20.30
2018-02-18T22:33:09.675Z,20.47
2018-02-18T22:35:37.390Z,19.67
2018-02-18T22:38:05.070Z,20.60
2018-02-18T22:40:32.664Z,19.33
2018-02-18T22:43:01.433Z,21.07
2018-02-18T22:45:29.073Z,20.87
2018-02-18T22:50:37.871Z,24.75
2018-02-18T22:53:05.492Z,20.33
2018-02-18T22:55:33.129Z,18.57
2018-02-18T22:58:00.823Z,19.90
2018-02-18T23:00:28.510Z,20.70
2018-02-18T23:02:58.973Z,20.43
2018-02-18T23:05:29.502Z,19.50
2018-02-18T23:07:57.122Z,20.30
2018-02-18T23:10:24.840Z,20.17
2018-02-18T23:12:52.474Z,19.87
2018-02-18T23:15:20.103Z,20.10
2018-02-18T23:17:47.727Z,19.63
2018-02-18T23:20:15.411Z,18.80
2018-02-18T23:22:43.040Z,20.20
2018-02-18T23:25:10.671Z,20.80
2018-02-18T23:27:38.400Z,22.33
2018-02-18T23:30:06.020Z,19.27
2018-02-18T23:32:35.820Z,20.50
2018-02-18T23:35:03.540Z,22.33
2018-02-18T23:37:31.652Z,21.07
2018-02-18T23:39:59.289Z,21.47
2018-02-18T23:42:26.979Z,22.10
2018-02-18T23:44:54.618Z,22.57
2018-02-18T23:47:22.249Z,21.33
2018-02-18T23:49:49.959Z,23.40
2018-02-18T23:54:57.370Z,27.23
2018-02-18T23:57:25.001Z,24.07
2018-02-18T23:59:52.973Z,24.03
